createdAt,value
2022-08-17T00:00:43.678Z,97939.63
2022-08-17T00:03:10.765Z,97943.53
2022-08-17T00:05:45.959Z,97926.31
2022-08-17T00:08:16.644Z,97935.63
2022-08-17T00:10:47.782Z,97939.16
2022-08-17T00:13:22.158Z,97949.03
2022-08-17T00:15:50.885Z,97937.75
2022-08-17T00:19:01.381Z,97918.78
2022-08-17T00:21:13.188Z,97931.34
2022-08-17T00:23:44.479Z,97921.81
2022-08-17T00:26:43.442Z,97937.34
2022-08-17T00:29:08.353Z,97930.88
2022-08-17T00:31:36.797Z,97940.59
2022-08-17T00:34:06.777Z,97931.00
2022-08-17T00:36:36.914Z,97933.00
2022-08-17T00:39:06.024Z,97921.19
2022-08-17T00:41:36.566Z,97895.25
2022-08-17T00:44:12.118Z,97925.63
2022-08-17T00:46:44.435Z,97889.59
2022-08-17T00:49:19.332Z,97924.97
2022-08-17T00:51:52.504Z,97922.03
2022-08-17T00:54:24.588Z,97895.25
2022-08-17T00:56:56.110Z,97921.56
2022-08-17T00:59:30.785Z,97922.06
2022-08-17T01:02:00.035Z,97932.47
2022-08-17T01:04:32.817Z,97919.72
2022-08-17T01:07:06.369Z,97932.88
2022-08-17T01:09:35.310Z,97928.19
2022-08-17T01:12:06.588Z,97950.31
2022-08-17T01:14:37.727Z,97937.53
2022-08-17T01:17:07.077Z,97910.41
2022-08-17T01:19:39.066Z,97902.53
2022-08-17T01:22:18.766Z,97924.59
2022-08-17T01:24:51.989Z,97933.94
2022-08-17T01:27:23.864Z,97885.81
2022-08-17T01:29:56.799Z,97932.47
2022-08-17T01:32:26.096Z,97934.31
2022-08-17T01:34:56.461Z,97902.38
2022-08-17T01:37:32.733Z,97952.09
2022-08-17T01:40:07.209Z,97934.56
2022-08-17T01:42:41.498Z,97884.63
2022-08-17T01:45:18.890Z,97925.97
2022-08-17T01:47:47.646Z,97924.88
2022-08-17T01:50:20.319Z,97917.06
2022-08-17T01:52:54.652Z,97899.81
2022-08-17T01:55:28.106Z,97926.41
2022-08-17T01:57:58.730Z,97943.50
2022-08-17T02:00:46.753Z,97922.28
2022-08-17T02:03:17.196Z,97942.41
2022-08-17T02:05:48.437Z,97958.06
2022-08-17T02:08:20.374Z,97970.88
2022-08-17T02:10:50.445Z,97912.94
2022-08-17T02:13:22.606Z,97929.38
2022-08-17T02:15:51.140Z,97928.72
2022-08-17T02:18:19.481Z,97941.25
2022-08-17T02:20:50.413Z,97941.66
2022-08-17T02:23:21.386Z,97942.41
2022-08-17T02:25:50.434Z,97938.56
2022-08-17T02:28:19.478Z,97923.44
2022-08-17T02:31:00.310Z,97918.22
2022-08-17T02:33:41.746Z,97911.53
2022-08-17T02:36:14.757Z,97899.81
2022-08-17T02:38:47.635Z,97921.56
2022-08-17T02:41:16.276Z,97920.53
2022-08-17T02:43:45.264Z,97936.00
2022-08-17T02:46:13.711Z,97927.69
2022-08-17T02:48:44.391Z,97925.31
2022-08-17T02:51:12.803Z,97931.03
2022-08-17T02:53:41.224Z,97922.22
2022-08-17T02:56:10.941Z,97911.28
2022-08-17T02:58:39.310Z,97909.91
2022-08-17T03:01:09.864Z,97914.88
2022-08-17T03:03:38.779Z,97904.75
2022-08-17T03:06:08.371Z,97913.97
2022-08-17T03:08:37.441Z,97940.31
2022-08-17T03:11:06.249Z,97951.25
2022-08-17T03:13:36.400Z,97940.84
2022-08-17T03:16:05.338Z,97940.59
2022-08-17T03:18:34.251Z,97961.69
2022-08-17T03:21:04.274Z,97927.00
2022-08-17T03:23:40.863Z,97950.47
2022-08-17T03:26:12.350Z,97957.59
2022-08-17T03:28:45.297Z,97913.94
2022-08-17T03:31:16.155Z,97928.72
2022-08-17T03:33:44.578Z,97946.03
2022-08-17T03:36:15.353Z,97953.31
2022-08-17T03:38:43.677Z,97928.09
2022-08-17T03:41:13.945Z,97960.00
2022-08-17T03:43:46.325Z,97942.78
2022-08-17T03:46:35.610Z,97931.38
2022-08-17T03:49:23.242Z,97955.91
2022-08-17T03:52:09.116Z,97980.72
2022-08-17T03:54:55.441Z,97986.16
2022-08-17T03:57:24.611Z,98006.50
2022-08-17T03:59:57.239Z,98000.44
2022-08-17T04:02:27.982Z,97976.22
2022-08-17T04:04:57.612Z,98020.34
2022-08-17T04:07:29.176Z,98003.75
2022-08-17T04:09:59.341Z,98020.06
2022-08-17T04:12:30.703Z,97977.59
2022-08-17T04:15:00.824Z,97999.91
2022-08-17T04:17:30.555Z,97994.47
2022-08-17T04:19:58.957Z,97985.69
2022-08-17T04:22:33.710Z,97985.41
2022-08-17T04:25:09.241Z,97978.53
2022-08-17T04:27:37.648Z,98020.25
2022-08-17T04:30:11.530Z,98005.16
2022-08-17T04:33:05.320Z,97977.97
2022-08-17T04:35:37.768Z,98002.28
2022-08-17T04:38:07.285Z,98017.81
2022-08-17T04:40:53.894Z,98032.78
2022-08-17T04:43:24.570Z,98030.88
2022-08-17T04:45:57.378Z,98011.94
2022-08-17T04:48:29.727Z,98019.53
2022-08-17T04:51:10.532Z,97991.09
2022-08-17T04:53:40.498Z,98007.03
2022-08-17T04:56:16.005Z,98013.75
2022-08-17T04:58:47.612Z,98004.03
2022-08-17T05:01:23.189Z,97994.94
2022-08-17T05:03:53.948Z,98005.13
2022-08-17T05:06:22.883Z,98006.00
2022-08-17T05:08:51.275Z,98004.25
2022-08-17T05:11:19.709Z,98003.91
2022-08-17T05:13:50.092Z,97998.84
2022-08-17T05:16:23.725Z,97999.41
2022-08-17T05:18:52.302Z,97994.88
2022-08-17T05:21:23.036Z,97978.69
2022-08-17T05:23:54.806Z,97994.28
2022-08-17T05:26:26.856Z,97995.09
2022-08-17T05:28:59.648Z,97995.22
2022-08-17T05:31:30.783Z,97994.50
2022-08-17T05:33:59.233Z,97990.56
2022-08-17T05:36:41.707Z,98006.88
2022-08-17T05:39:15.969Z,97994.63
2022-08-17T05:41:46.783Z,97985.44
2022-08-17T05:44:14.868Z,97977.72
2022-08-17T05:46:46.601Z,97969.78
2022-08-17T05:49:15.814Z,97974.31
2022-08-17T05:51:57.957Z,97982.19
2022-08-17T05:54:31.100Z,97982.34
2022-08-17T05:57:10.864Z,97982.47
2022-08-17T05:59:55.967Z,97976.91
2022-08-17T06:02:38.699Z,97983.38
2022-08-17T06:05:20.678Z,97972.19
2022-08-17T06:08:01.080Z,97984.19
2022-08-17T06:10:34.539Z,97990.06
2022-08-17T06:13:10.693Z,97995.84
2022-08-17T06:15:46.824Z,97999.25
2022-08-17T06:18:19.223Z,97984.38
2022-08-17T06:20:53.375Z,98000.59
2022-08-17T06:23:27.537Z,97995.91
2022-08-17T06:26:03.637Z,97996.75
2022-08-17T06:28:38.235Z,98002.97
2022-08-17T06:31:12.901Z,98007.44
2022-08-17T06:33:46.338Z,98003.97
2022-08-17T06:36:30.127Z,98004.84
2022-08-17T06:39:13.439Z,98015.59
2022-08-17T06:41:49.538Z,98009.22
2022-08-17T06:44:49.635Z,98014.16
2022-08-17T06:47:15.567Z,98007.59
2022-08-17T06:50:08.913Z,98024.72
2022-08-17T06:52:46.779Z,98021.13
2022-08-17T06:55:22.353Z,98014.34
2022-08-17T06:57:53.461Z,97998.84
2022-08-17T07:00:24.989Z,97998.63
2022-08-17T07:03:02.309Z,98002.16
2022-08-17T07:05:38.972Z,98002.84
2022-08-17T07:08:14.558Z,98009.03
2022-08-17T07:10:46.988Z,97998.44
2022-08-17T07:13:32.427Z,97991.31
2022-08-17T07:16:08.420Z,97999.41
2022-08-17T07:18:37.407Z,98002.53
2022-08-17T07:21:25.824Z,98007.06
2022-08-17T07:24:04.463Z,98005.94
2022-08-17T07:26:32.900Z,98005.13
2022-08-17T07:29:02.935Z,97968.28
2022-08-17T07:31:33.525Z,97983.03
2022-08-17T07:34:08.684Z,98012.56
2022-08-17T07:36:38.462Z,98006.75
2022-08-17T07:39:10.426Z,97992.72
2022-08-17T07:41:53.340Z,98011.31
2022-08-17T07:44:29.558Z,98004.56
2022-08-17T07:47:18.503Z,98012.78
2022-08-17T07:49:47.438Z,98014.56
2022-08-17T07:52:50.986Z,98022.28
2022-08-17T07:55:29.519Z,98021.78
2022-08-17T07:58:00.506Z,98029.81
2022-08-17T08:00:31.605Z,98031.75
2022-08-17T08:03:07.238Z,98032.81
2022-08-17T08:05:49.843Z,98037.91
2022-08-17T08:08:26.236Z,98041.47
2022-08-17T08:11:16.566Z,98046.84
2022-08-17T08:13:46.034Z,98049.16
2022-08-17T08:16:22.637Z,98037.91
2022-08-17T08:18:56.934Z,98039.38
2022-08-17T08:21:36.786Z,98047.50
2022-08-17T08:24:30.920Z,98050.59
2022-08-17T08:27:10.525Z,98053.34
2022-08-17T08:29:48.813Z,98053.03
2022-08-17T08:32:27.956Z,98055.78
2022-08-17T08:35:04.769Z,98061.13
2022-08-17T08:37:52.813Z,98063.91
2022-08-17T08:40:36.800Z,98059.69
2022-08-17T08:43:17.438Z,98069.63
2022-08-17T08:45:56.671Z,98079.66
2022-08-17T08:48:56.311Z,98084.69
2022-08-17T08:51:38.149Z,98079.47
2022-08-17T08:54:15.606Z,98066.81
2022-08-17T08:57:19.789Z,98041.97
2022-08-17T08:59:57.852Z,98049.63
2022-08-17T09:02:53.037Z,98068.72
2022-08-17T09:05:34.021Z,98066.19
2022-08-17T09:08:10.235Z,98054.31
2022-08-17T09:10:53.188Z,98086.75
2022-08-17T09:13:29.575Z,98084.50
2022-08-17T09:16:04.594Z,98091.50
2022-08-17T09:19:02.914Z,98091.06
2022-08-17T09:21:33.836Z,98079.97
2022-08-17T09:24:06.009Z,98084.34
2022-08-17T09:26:39.427Z,98079.81
2022-08-17T09:29:13.937Z,98082.75
2022-08-17T09:31:49.233Z,98089.56
2022-08-17T09:34:21.155Z,98081.91
2022-08-17T09:36:53.237Z,98091.16
2022-08-17T09:39:25.487Z,98083.22
2022-08-17T09:41:56.961Z,98089.41
2022-08-17T09:44:29.530Z,98090.38
2022-08-17T09:47:02.078Z,98084.53
2022-08-17T09:49:31.888Z,98086.78
2022-08-17T09:52:03.396Z,98093.25
2022-08-17T09:54:39.076Z,98096.03
2022-08-17T09:57:29.159Z,98100.72
2022-08-17T10:00:08.991Z,98104.47
2022-08-17T10:02:56.651Z,98104.47
2022-08-17T10:05:31.998Z,98125.53
2022-08-17T10:08:03.015Z,98130.69
2022-08-17T10:10:38.013Z,98141.53
2022-08-17T10:13:14.649Z,98139.25
2022-08-17T10:15:54.885Z,98126.38
2022-08-17T10:18:33.349Z,98128.44
2022-08-17T10:21:16.906Z,98125.41
2022-08-17T10:24:03.951Z,98133.25
2022-08-17T10:26:43.081Z,98158.25
2022-08-17T10:29:29.004Z,98153.78
2022-08-17T10:32:04.067Z,98156.25
2022-08-17T10:34:47.392Z,98141.78
2022-08-17T10:37:31.241Z,98142.09
2022-08-17T10:40:20.331Z,98138.53
2022-08-17T10:42:51.160Z,98142.88
2022-08-17T10:45:26.189Z,98101.47
2022-08-17T10:48:05.149Z,98108.09
2022-08-17T10:50:47.409Z,98129.66
2022-08-17T10:53:37.543Z,98158.38
2022-08-17T10:56:25.088Z,98205.81
2022-08-17T10:58:54.940Z,98227.56
2022-08-17T11:01:44.313Z,98242.25
2022-08-17T11:04:25.283Z,98212.06
2022-08-17T11:07:02.135Z,98201.53
2022-08-17T11:09:36.715Z,98190.28
2022-08-17T11:12:11.684Z,98204.88
2022-08-17T11:14:54.767Z,98213.38
2022-08-17T11:17:31.542Z,98214.47
2022-08-17T11:20:21.116Z,98204.03
2022-08-17T11:23:19.618Z,98202.66
2022-08-17T11:25:49.594Z,98191.97
2022-08-17T11:28:23.268Z,98185.25
2022-08-17T11:30:53.303Z,98207.59
2022-08-17T11:33:40.800Z,98199.50
2022-08-17T11:36:17.983Z,98180.91
2022-08-17T11:38:49.436Z,98169.81
2022-08-17T11:41:22.267Z,98174.72
2022-08-17T11:44:04.771Z,98189.41
2022-08-17T11:46:56.834Z,98194.50
2022-08-17T11:49:47.565Z,98229.91
2022-08-17T11:52:42.105Z,98194.91
2022-08-17T11:55:35.717Z,98201.13
2022-08-17T11:58:07.460Z,98210.91
2022-08-17T12:00:51.280Z,98214.81
2022-08-17T12:03:22.327Z,98184.28
2022-08-17T12:05:53.440Z,98170.75
2022-08-17T12:08:22.000Z,98174.34
2022-08-17T12:10:54.484Z,98159.63
2022-08-17T12:13:30.455Z,98154.00
2022-08-17T12:16:07.315Z,98132.47
2022-08-17T12:18:39.578Z,98138.78
2022-08-17T12:21:17.660Z,98145.22
2022-08-17T12:23:51.860Z,98140.06
2022-08-17T12:26:20.577Z,98133.88
2022-08-17T12:28:51.047Z,98134.63
2022-08-17T12:31:21.464Z,98131.69
2022-08-17T12:33:51.662Z,98121.44
2022-08-17T12:36:24.486Z,98127.16
2022-08-17T12:38:54.192Z,98145.28
2022-08-17T12:41:31.357Z,98142.34
2022-08-17T12:44:02.660Z,98126.03
2022-08-17T12:46:33.457Z,98121.31
2022-08-17T12:49:14.872Z,98108.91
2022-08-17T12:51:43.938Z,98078.91
2022-08-17T12:54:22.921Z,98100.56
2022-08-17T12:56:51.037Z,98082.25
2022-08-17T12:59:29.943Z,98081.63
2022-08-17T13:01:59.073Z,98084.00
2022-08-17T13:04:29.583Z,98078.38
2022-08-17T13:07:00.057Z,98080.50
2022-08-17T13:09:35.450Z,98076.91
2022-08-17T13:12:08.347Z,98069.09
2022-08-17T13:14:45.760Z,98062.78
2022-08-17T13:17:14.276Z,98060.81
2022-08-17T13:19:49.236Z,98055.94
2022-08-17T13:22:18.545Z,98046.38
2022-08-17T13:24:52.946Z,98048.13
2022-08-17T13:27:23.832Z,98055.41
2022-08-17T13:29:59.493Z,98068.03
2022-08-17T13:32:37.774Z,98053.78
2022-08-17T13:35:51.596Z,98056.03
2022-08-17T13:38:36.463Z,98043.91
2022-08-17T13:41:06.356Z,98041.91
2022-08-17T13:43:40.832Z,98050.13
2022-08-17T13:46:13.477Z,98041.84
2022-08-17T13:48:41.903Z,98043.81
2022-08-17T13:51:29.529Z,98042.41
2022-08-17T13:54:08.883Z,98045.88
2022-08-17T13:57:00.178Z,98039.03
2022-08-17T13:59:53.678Z,98034.09
2022-08-17T14:02:28.303Z,98029.28
2022-08-17T14:05:00.429Z,98029.38
2022-08-17T14:07:33.754Z,98026.91
2022-08-17T14:10:03.275Z,98015.69
2022-08-17T14:12:33.088Z,98009.69
2022-08-17T14:15:01.197Z,98008.88
2022-08-17T14:17:36.352Z,98005.16
2022-08-17T14:20:07.567Z,98003.84
2022-08-17T14:22:37.647Z,97991.91
2022-08-17T14:25:10.308Z,97995.63
2022-08-17T14:27:52.131Z,97991.59
2022-08-17T14:30:29.809Z,97991.03
2022-08-17T14:33:02.020Z,97993.34
2022-08-17T14:35:31.014Z,97996.66
2022-08-17T14:37:59.748Z,97969.53
2022-08-17T14:40:28.072Z,97990.22
2022-08-17T14:42:57.772Z,97991.97
2022-08-17T14:45:30.356Z,97988.94
2022-08-17T14:48:05.523Z,97991.00
2022-08-17T14:50:35.818Z,98000.13
2022-08-17T14:53:07.671Z,97993.91
2022-08-17T14:55:36.797Z,98000.56
2022-08-17T14:58:04.980Z,97995.47
2022-08-17T15:00:33.086Z,98003.06
2022-08-17T15:03:01.410Z,97988.09
2022-08-17T15:05:32.286Z,97994.28
2022-08-17T15:08:00.924Z,97989.31
2022-08-17T15:10:29.257Z,97995.47
2022-08-17T15:12:57.634Z,97993.63
2022-08-17T15:15:28.860Z,97996.44
2022-08-17T15:17:57.465Z,97999.94
2022-08-17T15:20:27.575Z,97988.19
2022-08-17T15:22:58.738Z,97990.22
2022-08-17T15:25:28.703Z,97989.31
2022-08-17T15:28:20.488Z,97986.91
2022-08-17T15:30:48.987Z,97981.09
2022-08-17T15:33:18.121Z,97987.34
2022-08-17T15:35:46.668Z,97978.91
2022-08-17T15:38:16.415Z,97980.41
2022-08-17T15:40:46.094Z,97986.09
2022-08-17T15:43:15.531Z,97985.91
2022-08-17T15:45:43.937Z,97987.19
2022-08-17T15:48:14.133Z,97974.28
2022-08-17T15:50:42.532Z,97976.91
2022-08-17T15:53:10.539Z,97975.22
2022-08-17T15:55:43.915Z,97975.78
2022-08-17T15:58:12.025Z,97982.47
2022-08-17T16:00:49.911Z,97975.44
2022-08-17T16:04:01.171Z,97975.31
2022-08-17T16:06:17.272Z,97970.69
2022-08-17T16:08:45.901Z,97966.31
2022-08-17T16:11:16.147Z,97971.97
2022-08-17T16:13:54.521Z,97977.72
2022-08-17T16:16:23.578Z,97955.03
2022-08-17T16:18:53.603Z,97951.66
2022-08-17T16:21:29.514Z,97958.84
2022-08-17T16:23:59.919Z,97956.53
2022-08-17T16:26:29.528Z,97958.22
2022-08-17T16:28:58.066Z,97958.22
2022-08-17T16:31:26.115Z,97949.38
2022-08-17T16:34:16.427Z,97957.03
2022-08-17T16:36:54.722Z,97950.00
2022-08-17T16:39:25.437Z,97951.66
2022-08-17T16:41:55.621Z,97957.84
2022-08-17T16:44:23.771Z,97954.69
2022-08-17T16:46:54.512Z,97949.53
2022-08-17T16:49:36.293Z,97958.13
2022-08-17T16:52:11.191Z,97961.88
2022-08-17T16:54:43.785Z,97976.84
2022-08-17T16:57:17.540Z,97971.72
2022-08-17T17:02:25.162Z,97952.66
2022-08-17T17:04:56.566Z,97949.94
2022-08-17T17:07:34.899Z,97941.03
2022-08-17T17:10:06.237Z,97951.56
2022-08-17T17:13:03.236Z,97949.47
2022-08-17T17:15:27.593Z,97950.75
2022-08-17T17:17:59.850Z,97960.53
2022-08-17T17:20:37.385Z,97952.41
2022-08-17T17:23:08.811Z,97944.97
2022-08-17T17:25:48.936Z,97938.78
2022-08-17T17:28:24.901Z,97940.25
2022-08-17T17:31:01.926Z,97936.34
2022-08-17T17:33:34.853Z,97942.03
2022-08-17T17:36:07.781Z,97941.31
2022-08-17T17:38:39.901Z,97937.56
2022-08-17T17:41:10.624Z,97927.97
2022-08-17T17:43:42.783Z,97891.94
2022-08-17T17:46:28.675Z,97932.09
2022-08-17T17:49:00.862Z,97933.03
2022-08-17T17:52:05.247Z,97922.28
2022-08-17T17:54:48.433Z,97936.22
2022-08-17T17:57:24.588Z,97927.44
2022-08-17T18:00:02.465Z,97926.69
2022-08-17T18:03:02.037Z,97925.38
2022-08-17T18:06:01.393Z,97902.13
2022-08-17T18:08:44.315Z,97920.69
2022-08-17T18:11:37.227Z,97927.53
2022-08-17T18:14:18.489Z,97921.97
2022-08-17T18:16:57.354Z,97892.19
2022-08-17T18:19:28.033Z,97930.97
2022-08-17T18:22:06.827Z,97926.91
2022-08-17T18:24:38.110Z,97930.16
2022-08-17T18:27:21.649Z,97901.25
2022-08-17T18:29:51.890Z,97923.94
2022-08-17T18:32:27.750Z,97922.84
2022-08-17T18:34:59.720Z,97924.78
2022-08-17T18:37:39.752Z,97940.00
2022-08-17T18:40:32.150Z,97943.53
2022-08-17T18:43:11.230Z,97925.28
2022-08-17T18:45:44.291Z,97942.81
2022-08-17T18:48:23.847Z,97948.31
2022-08-17T18:50:53.873Z,97955.13
2022-08-17T18:53:33.257Z,97917.91
2022-08-17T18:56:24.047Z,97953.34
2022-08-17T18:58:59.960Z,97926.91
2022-08-17T19:01:52.244Z,97970.44
2022-08-17T19:04:35.785Z,97954.75
2022-08-17T19:07:24.484Z,97970.63
2022-08-17T19:09:57.816Z,97950.97
2022-08-17T19:12:31.316Z,97999.09
2022-08-17T19:15:01.639Z,98000.41
2022-08-17T19:17:37.697Z,98010.59
2022-08-17T19:20:15.883Z,97906.53
2022-08-17T19:23:03.990Z,97989.72
2022-08-17T19:25:35.629Z,97967.50
2022-08-17T19:28:21.738Z,97973.91
2022-08-17T19:30:55.316Z,97973.19
2022-08-17T19:33:23.534Z,97980.91
2022-08-17T19:35:58.883Z,97985.19
2022-08-17T19:38:37.155Z,98006.06
2022-08-17T19:41:08.415Z,97999.56
2022-08-17T19:43:48.014Z,97984.25
2022-08-17T19:46:19.917Z,97985.69
2022-08-17T19:48:53.287Z,97989.72
2022-08-17T19:51:31.417Z,97989.75
2022-08-17T19:54:06.664Z,97986.09
2022-08-17T19:56:37.613Z,97998.50
2022-08-17T19:59:12.490Z,98008.44
2022-08-17T20:01:45.157Z,98000.06
2022-08-17T20:04:16.772Z,97984.22
2022-08-17T20:06:49.284Z,97988.06
2022-08-17T20:09:21.204Z,97979.31
2022-08-17T20:11:50.844Z,97996.72
2022-08-17T20:14:21.757Z,98020.53
2022-08-17T20:16:52.477Z,98014.50
2022-08-17T20:19:25.133Z,98000.22
2022-08-17T20:21:57.482Z,98019.41
2022-08-17T20:24:32.685Z,98027.28
2022-08-17T20:27:09.987Z,98013.66
2022-08-17T20:29:55.404Z,98003.16
2022-08-17T20:32:25.597Z,98007.47
2022-08-17T20:35:17.920Z,98012.94
2022-08-17T20:37:58.357Z,98008.56
2022-08-17T20:40:31.566Z,98008.00
2022-08-17T20:43:00.577Z,98006.38
2022-08-17T20:45:47.425Z,98022.81
2022-08-17T20:48:37.531Z,98019.91
2022-08-17T20:51:32.502Z,98015.44
2022-08-17T20:54:26.485Z,98012.38
2022-08-17T20:56:57.729Z,98017.50
2022-08-17T20:59:53.840Z,98014.25
2022-08-17T21:02:25.473Z,98023.78
2022-08-17T21:05:00.200Z,98022.56
2022-08-17T21:07:39.994Z,98035.81
2022-08-17T21:10:30.945Z,98051.41
2022-08-17T21:13:01.277Z,98057.72
2022-08-17T21:15:35.244Z,98062.50
2022-08-17T21:18:06.580Z,98057.47
2022-08-17T21:20:39.473Z,98045.13
2022-08-17T21:23:24.456Z,98041.84
2022-08-17T21:26:09.424Z,98038.09
2022-08-17T21:29:00.379Z,98045.41
2022-08-17T21:31:34.605Z,98050.28
2022-08-17T21:34:25.773Z,98054.06
2022-08-17T21:36:53.868Z,98052.53
2022-08-17T21:39:38.496Z,98048.94
2022-08-17T21:42:09.347Z,98040.72
2022-08-17T21:44:38.371Z,98046.50
2022-08-17T21:47:14.098Z,98047.94
2022-08-17T21:49:42.204Z,98052.59
2022-08-17T21:52:14.515Z,98062.69
2022-08-17T21:54:48.393Z,98061.09
2022-08-17T21:57:20.840Z,98050.38
2022-08-17T22:02:37.486Z,98064.03
2022-08-17T22:05:10.446Z,98080.16
2022-08-17T22:07:40.528Z,98075.53
2022-08-17T22:10:10.970Z,98072.84
2022-08-17T22:12:39.064Z,98084.88
2022-08-17T22:15:09.587Z,98099.09
2022-08-17T22:17:46.293Z,98129.44
2022-08-17T22:20:17.676Z,98138.69
2022-08-17T22:23:14.589Z,98157.06
2022-08-17T22:26:00.098Z,98162.34
2022-08-17T22:28:39.576Z,98164.31
2022-08-17T22:31:08.986Z,98197.06
2022-08-17T22:33:41.279Z,98206.94
2022-08-17T22:36:24.639Z,98232.44
2022-08-17T22:38:53.998Z,98235.63
2022-08-17T22:41:26.274Z,98245.03
2022-08-17T22:43:55.030Z,98264.34
2022-08-17T22:46:24.260Z,98265.47
2022-08-17T22:48:55.035Z,98259.38
2022-08-17T22:51:24.225Z,98254.53
2022-08-17T22:54:14.355Z,98252.03
2022-08-17T22:57:06.205Z,98238.31
2022-08-17T22:59:41.513Z,98248.66
2022-08-17T23:02:20.896Z,98246.00
2022-08-17T23:04:52.354Z,98237.25
2022-08-17T23:07:21.464Z,98230.41
2022-08-17T23:09:49.617Z,98223.09
2022-08-17T23:12:22.702Z,98216.25
2022-08-17T23:14:57.331Z,98212.31
2022-08-17T23:17:25.451Z,98220.47
2022-08-17T23:19:55.551Z,98217.03
2022-08-17T23:22:25.978Z,98210.03
2022-08-17T23:24:54.268Z,98205.06
2022-08-17T23:27:23.148Z,98208.25
2022-08-17T23:29:51.485Z,98209.94
2022-08-17T23:32:19.711Z,98221.66
2022-08-17T23:34:49.410Z,98219.28
2022-08-17T23:37:19.578Z,98210.38
2022-08-17T23:39:47.751Z,98207.94
2022-08-17T23:42:18.415Z,98204.28
2022-08-17T23:44:46.539Z,98208.44
2022-08-17T23:47:14.604Z,98210.53
2022-08-17T23:49:42.664Z,98205.13
2022-08-17T23:52:16.636Z,98208.22
2022-08-17T23:54:47.600Z,98222.16
2022-08-17T23:57:19.453Z,98231.72
2022-08-17T23:59:47.593Z,98234.94
